Time;durP1;ratioP1;P1;durP2;ratioP2;P2;SDS_P1;SDS_P2;PMS_P1;PMS_P2;Temp;Humidity;BMP_temperature;BMP_pressure;BME280_temperature;BME280_humidity;BME280_pressure;Samples;Min_cycle;Max_cycle;Signal;HPM_P1;HPM_P2
2022/06/18 00:02:15;;;;;;;7.10;3.70;;;;;;;14.87;73.30;101359.89;107475;1249;72321;-78
2022/06/18 00:04:46;;;;;;;5.80;3.50;;;;;;;14.86;72.94;101360.52;107724;1246;70268;-79
2022/06/18 00:07:22;;;;;;;6.10;3.60;;;;;;;14.84;72.96;101363.98;107638;1247;72046;-78
2022/06/18 00:10:04;;;;;;;7.90;3.90;;;;;;;14.81;73.15;101364.75;107647;1247;61385;-78
2022/06/18 00:15:25;;;;;;;4.60;3.90;;;;;;;14.76;73.70;101359.59;107695;1246;72521;-77
2022/06/18 00:17:54;;;;;;;;;;;;;;;14.79;75.52;101362.48;107733;1246;69552;-80
2022/06/18 00:20:26;;;;;;;4.20;3.40;;;;;;;14.75;73.40;101364.87;107462;1246;68168;-77
2022/06/18 00:23:00;;;;;;;4.80;3.30;;;;;;;14.74;72.57;101366.20;107479;1247;73805;-78
2022/06/18 00:25:39;;;;;;;6.70;3.90;;;;;;;14.75;74.26;101366.30;107416;1246;62645;-80
2022/06/18 00:28:21;;;;;;;5.20;3.80;;;;;;;14.74;73.58;101368.70;107910;1246;60885;-77
2022/06/18 00:30:52;;;;;;;4.50;3.50;;;;;;;14.74;73.09;101369.20;107830;1247;72289;-79
2022/06/18 00:33:22;;;;;;;4.80;3.90;;;;;;;14.73;73.23;101369.56;107749;1248;71718;-80
2022/06/18 00:35:58;;;;;;;4.50;3.30;;;;;;;14.74;73.85;101370.59;107659;1248;69126;-80
2022/06/18 00:38:37;;;;;;;4.80;3.60;;;;;;;14.75;73.53;101371.73;107344;1248;73255;-79
2022/06/18 00:41:07;;;;;;;6.80;3.50;;;;;;;14.75;73.79;101373.48;107417;1248;60154;-79
2022/06/18 00:43:44;;;;;;;5.50;3.30;;;;;;;14.74;73.46;101371.29;107510;1246;59212;-82
2022/06/18 00:46:31;;;;;;;6.50;3.50;;;;;;;14.73;73.55;101369.40;107575;1246;71683;-79
2022/06/18 00:49:06;;;;;;;5.10;3.80;;;;;;;14.70;74.20;101364.77;107647;1246;70143;-76
2022/06/18 00:51:54;;;;;;;5.80;3.70;;;;;;;14.69;74.00;101367.49;107305;1249;68398;-81
2022/06/18 00:54:30;;;;;;;4.80;3.40;;;;;;;14.68;74.13;101369.52;107446;1248;72926;-75
2022/06/18 00:57:31;;;;;;;5.90;4.00;;;;;;;14.66;75.36;101363.68;107740;1246;60628;-78
2022/06/18 01:00:14;;;;;;;6.80;3.50;;;;;;;14.65;74.29;101361.32;107467;1246;61203;-78
2022/06/18 01:02:45;;;;;;;;;;;;;;;14.63;74.38;101361.86;107563;1246;74342;-78
2022/06/18 01:05:19;;;;;;;5.00;3.60;;;;;;;14.61;74.16;101361.29;107751;1246;69932;-78
2022/06/18 01:07:56;;;;;;;5.20;3.90;;;;;;;14.58;74.36;101364.84;107431;1247;69347;-78
2022/06/18 01:10:38;;;;;;;7.30;4.00;;;;;;;14.55;75.49;101359.48;107557;1246;71996;-75
2022/06/18 01:13:13;;;;;;;5.20;4.10;;;;;;;14.51;74.17;101357.66;107636;1247;61385;-78
2022/06/18 01:15:46;;;;;;;8.10;3.70;;;;;;;14.50;75.71;101361.64;107552;1246;59636;-77
2022/06/18 01:18:16;;;;;;;;;;;;;;;14.51;75.76;101364.29;107870;1246;74932;-78
2022/06/18 01:21:08;;;;;;;4.80;3.70;;;;;;;14.45;75.68;101362.71;107767;1246;70286;-77
2022/06/18 01:24:07;;;;;;;6.50;3.60;;;;;;;14.33;75.82;101362.23;107658;1247;67930;-78
2022/06/18 01:26:37;;;;;;;5.80;4.00;;;;;;;14.21;76.53;101362.65;107410;1247;72889;-78
2022/06/18 01:29:06;;;;;;;6.10;3.90;;;;;;;14.09;76.51;101363.56;107739;1246;61235;-79
2022/06/18 01:31:36;;;;;;;6.80;4.50;;;;;;;14.01;76.71;101365.54;107680;1246;60387;-78
2022/06/18 01:34:08;;;;;;;7.50;4.80;;;;;;;13.95;76.75;101368.30;107356;1245;74347;-78
2022/06/18 01:36:41;;;;;;;6.30;4.40;;;;;;;13.91;77.65;101366.02;107190;1248;73902;-79
2022/06/18 01:39:19;;;;;;;6.20;4.40;;;;;;;13.89;76.68;101365.29;107405;1247;70172;-77
2022/06/18 01:42:11;;;;;;;5.40;4.40;;;;;;;13.85;76.48;101366.45;107514;1247;71827;-76
2022/06/18 01:45:08;;;;;;;5.30;3.60;;;;;;;13.86;76.73;101369.70;107482;1248;61998;-78
2022/06/18 01:47:59;;;;;;;6.40;4.30;;;;;;;13.88;77.67;101372.55;107521;1247;61482;-77
2022/06/18 01:50:47;;;;;;;6.20;4.40;;;;;;;13.85;77.31;101371.53;107530;1246;74023;-81
2022/06/18 01:53:38;;;;;;;6.90;4.70;;;;;;;13.80;77.50;101369.05;107577;1247;73803;-78
2022/06/18 01:56:14;;;;;;;5.50;4.50;;;;;;;13.76;78.51;101372.02;108339;1247;71537;-78
2022/06/18 01:59:01;;;;;;;5.90;4.50;;;;;;;13.75;76.83;101371.77;108573;1247;71927;-77
2022/06/18 02:01:44;;;;;;;6.90;4.50;;;;;;;13.74;77.13;101371.31;107949;1247;62285;-78
2022/06/18 02:04:17;;;;;;;6.00;4.60;;;;;;;13.75;77.60;101371.07;108000;1246;62793;-78
2022/06/18 02:06:49;;;;;;;5.20;4.20;;;;;;;13.75;77.43;101374.51;107857;1247;75197;-78
2022/06/18 02:09:36;;;;;;;6.60;3.60;;;;;;;13.73;77.44;101372.09;107778;1247;72760;-78
2022/06/18 02:12:11;;;;;;;5.90;4.50;;;;;;;13.74;78.69;101375.63;107920;1247;70917;-78
2022/06/18 02:14:45;;;;;;;5.40;4.20;;;;;;;13.76;78.56;101379.71;107709;1247;72488;-77
2022/06/18 02:17:18;;;;;;;5.30;4.40;;;;;;;13.75;78.91;101376.83;107565;1247;62610;-78
2022/06/18 02:20:18;;;;;;;5.60;3.90;;;;;;;13.74;78.80;101381.98;107427;1247;59530;-79
2022/06/18 02:22:51;;;;;;;6.00;4.10;;;;;;;13.68;78.47;101384.52;107502;1247;73671;-79
2022/06/18 02:25:29;;;;;;;7.70;4.00;;;;;;;13.64;78.44;101385.87;107591;1248;70705;-78
2022/06/18 02:28:02;;;;;;;8.10;4.30;;;;;;;13.66;79.27;101387.45;107701;1247;69897;-80
2022/06/18 02:30:36;;;;;;;5.90;4.00;;;;;;;13.65;79.32;101391.20;107568;1247;75337;-80
2022/06/18 02:33:36;;;;;;;6.00;4.10;;;;;;;13.61;79.39;101393.45;107577;1247;62235;-80
2022/06/18 02:36:19;;;;;;;7.00;4.60;;;;;;;13.60;79.52;101398.41;107931;1247;58971;-79
2022/06/18 02:39:11;;;;;;;5.50;4.50;;;;;;;13.58;79.33;101395.58;107709;1247;71720;-77
2022/06/18 02:41:42;;;;;;;8.20;4.60;;;;;;;13.58;79.41;101397.03;107595;1247;69616;-80
2022/06/18 02:44:13;;;;;;;8.10;5.10;;;;;;;13.59;79.11;101396.77;107557;1247;68558;-79
2022/06/18 02:46:42;;;;;;;8.20;5.10;;;;;;;13.57;79.72;101396.34;107406;1247;72000;-79
2022/06/18 02:49:13;;;;;;;7.40;4.60;;;;;;;13.55;79.80;101396.70;107528;1247;61297;-76
2022/06/18 02:51:42;;;;;;;6.80;4.70;;;;;;;13.53;79.28;101390.71;107534;1247;58917;-78
2022/06/18 02:54:12;;;;;;;7.40;4.90;;;;;;;13.50;79.02;101388.13;107708;1247;73706;-77
2022/06/18 02:56:43;;;;;;;8.20;5.00;;;;;;;13.48;79.19;101390.20;107199;1248;71428;-79
2022/06/18 02:59:12;;;;;;;6.10;5.00;;;;;;;13.48;78.66;101388.42;107416;1247;69647;-77
2022/06/18 03:01:42;;;;;;;7.10;4.80;;;;;;;13.51;78.32;101390.71;107576;1247;74432;-76
2022/06/18 03:04:11;;;;;;;5.50;4.60;;;;;;;13.56;78.48;101396.65;107464;1247;62596;-78
2022/06/18 03:06:40;;;;;;;7.30;4.40;;;;;;;13.59;78.27;101398.54;107650;1246;61378;-77
2022/06/18 03:09:10;;;;;;;6.40;4.80;;;;;;;13.62;78.14;101399.36;107498;1247;72835;-77
2022/06/18 03:14:26;;;;;;;8.60;4.80;;;;;;;13.65;78.37;101397.39;107299;1247;69145;-78
2022/06/18 03:16:55;;;;;;;7.20;5.00;;;;;;;13.67;78.21;101397.71;107575;1246;72179;-80
2022/06/18 03:19:53;;;;;;;7.70;5.10;;;;;;;13.69;78.64;101400.23;107495;1248;62159;-78
2022/06/18 03:22:24;;;;;;;6.60;4.90;;;;;;;13.76;78.22;101396.38;107531;1247;60212;-79
2022/06/18 03:24:55;;;;;;;5.50;4.90;;;;;;;13.81;78.14;101393.00;107730;1247;74473;-82
2022/06/18 03:27:23;;;;;;;6.40;4.20;;;;;;;13.91;77.83;101391.55;107596;1247;70449;-79
2022/06/18 03:29:56;;;;;;;6.40;4.30;;;;;;;13.94;77.80;101391.51;107794;1247;68700;-79
2022/06/18 03:32:25;;;;;;;7.30;5.60;;;;;;;13.89;77.89;101399.79;107564;1248;73320;-77
2022/06/18 03:34:54;;;;;;;10.10;5.80;;;;;;;13.80;77.95;101400.05;107783;1247;61967;-80
2022/06/18 03:37:23;;;;;;;7.70;5.90;;;;;;;13.83;78.14;101403.91;107505;1247;60297;-78
2022/06/18 03:39:53;;;;;;;9.90;6.00;;;;;;;13.87;77.89;101407.30;107698;1247;74431;-78
2022/06/18 03:42:21;;;;;;;8.60;4.50;;;;;;;13.93;77.62;101410.16;107399;1247;72637;-77
2022/06/18 03:44:51;;;;;;;6.70;4.80;;;;;;;14.02;77.72;101406.31;107704;1246;69901;-78
2022/06/18 03:47:20;;;;;;;8.70;5.80;;;;;;;14.02;77.89;101402.06;107745;1247;72442;-77
2022/06/18 03:49:51;;;;;;;10.80;6.40;;;;;;;13.98;78.01;101405.36;107350;1248;62198;-78
2022/06/18 03:52:21;;;;;;;8.40;5.40;;;;;;;14.03;77.97;101408.98;107582;1247;60105;-79
2022/06/18 03:54:49;;;;;;;7.40;5.80;;;;;;;14.08;77.69;101411.60;107280;1246;73697;-82
2022/06/18 03:57:19;;;;;;;6.70;4.90;;;;;;;14.18;77.72;101411.54;107235;1251;71266;-81
2022/06/18 03:59:48;;;;;;;8.30;5.70;;;;;;;14.27;77.47;101414.73;107702;1247;69757;-79
2022/06/18 04:02:17;;;;;;;9.40;4.30;;;;;;;14.30;77.53;101414.11;107771;1247;73723;-81
2022/06/18 04:04:47;;;;;;;10.40;5.40;;;;;;;14.38;77.73;101413.50;107544;1248;59877;-78
2022/06/18 04:07:22;;;;;;;11.10;6.00;;;;;;;14.42;77.53;101416.36;107852;1247;58808;-78
2022/06/18 04:10:40;;;;;;;8.60;5.40;;;;;;;14.52;77.12;101411.38;107548;1247;74379;-79
2022/06/18 04:13:09;;;;;;;9.20;6.00;;;;;;;14.71;76.86;101415.41;107266;1247;70693;-78
2022/06/18 04:15:53;;;;;;;;;;;;;;;14.79;76.32;101418.55;107260;1247;69630;-80
2022/06/18 04:18:28;;;;;;;7.80;5.00;;;;;;;14.90;76.09;101411.25;107601;1247;73694;-80
2022/06/18 04:21:00;;;;;;;6.20;4.90;;;;;;;14.98;75.92;101414.29;107390;1248;62548;-78
2022/06/18 04:23:32;;;;;;;5.80;4.50;;;;;;;15.10;76.09;101415.06;107428;1247;59523;-77
2022/06/18 04:26:02;;;;;;;6.50;4.30;;;;;;;15.24;75.82;101421.48;107303;1247;72536;-81
2022/06/18 04:28:31;;;;;;;6.70;4.50;;;;;;;15.32;75.43;101416.92;107357;1247;72287;-77
2022/06/18 04:31:09;;;;;;;7.30;4.20;;;;;;;15.42;75.13;101415.84;107474;1247;68381;-80
2022/06/18 04:33:42;;;;;;;6.60;4.50;;;;;;;15.51;74.82;101418.41;107537;1247;73847;-80
2022/06/18 04:36:39;;;;;;;7.90;5.40;;;;;;;15.57;74.62;101415.78;107452;1247;60947;-78
2022/06/18 04:39:14;;;;;;;7.80;5.30;;;;;;;15.61;74.56;101413.69;107628;1247;58931;-81
2022/06/18 04:41:56;;;;;;;6.90;5.40;;;;;;;15.64;74.40;101419.30;107517;1247;74714;-80
2022/06/18 04:44:27;;;;;;;6.60;4.60;;;;;;;15.75;74.39;101420.00;107633;1246;71171;-79
2022/06/18 04:47:19;;;;;;;7.10;4.60;;;;;;;15.92;73.71;101422.23;107749;1246;68687;-79
2022/06/18 04:49:50;;;;;;;6.30;4.30;;;;;;;15.97;73.72;101422.88;107454;1247;73957;-78
2022/06/18 04:52:20;;;;;;;7.50;4.30;;;;;;;16.01;73.51;101434.83;107795;1246;61861;-79
2022/06/18 04:54:58;;;;;;;6.80;4.30;;;;;;;16.11;73.13;101440.09;107610;1247;58983;-76
2022/06/18 04:57:28;;;;;;;8.00;4.50;;;;;;;16.17;72.93;101443.85;107574;1247;72774;-79
2022/06/18 04:59:56;;;;;;;8.10;4.10;;;;;;;16.28;72.58;101444.71;107607;1246;71586;-80
2022/06/18 05:02:30;;;;;;;6.40;5.20;;;;;;;16.37;72.40;101441.82;107505;1248;69572;-80
2022/06/18 05:04:59;;;;;;;7.20;4.20;;;;;;;16.47;71.89;101451.32;107628;1247;71408;-81
2022/06/18 05:08:21;;;;;;;6.40;4.20;;;;;;;16.59;71.36;101450.25;107562;1248;61348;-80
2022/06/18 05:11:08;;;;;;;6.30;3.90;;;;;;;16.60;71.15;101454.37;107880;1247;59461;-78
2022/06/18 05:13:53;;;;;;;6.80;4.40;;;;;;;16.69;71.04;101452.59;109034;1247;73748;-80
2022/06/18 05:16:30;;;;;;;5.70;4.30;;;;;;;16.74;70.17;101449.73;108740;1247;71841;-79
2022/06/18 05:19:00;;;;;;;6.00;4.20;;;;;;;16.72;70.53;101447.91;108390;1247;68395;-77
2022/06/18 05:21:29;;;;;;;5.30;4.30;;;;;;;16.82;70.45;101451.99;107893;1247;73925;-79
2022/06/18 05:23:58;;;;;;;8.80;4.70;;;;;;;16.93;70.07;101457.76;108271;1247;60922;-77
2022/06/18 05:26:27;;;;;;;5.40;3.90;;;;;;;17.00;69.54;101458.48;107820;1247;59392;-80
2022/06/18 05:28:56;;;;;;;8.20;4.70;;;;;;;17.01;69.36;101463.36;107691;1247;72522;-80
2022/06/18 05:31:26;;;;;;;4.90;4.00;;;;;;;16.93;69.69;101461.98;107621;1247;72225;-80
2022/06/18 05:33:55;;;;;;;12.30;5.10;;;;;;;17.04;69.63;101459.73;107731;1246;69554;-77
2022/06/18 05:36:24;;;;;;;8.50;4.70;;;;;;;17.15;69.18;101460.53;107753;1247;72401;-79
2022/06/18 05:38:57;;;;;;;7.90;4.60;;;;;;;17.30;68.84;101463.63;107548;1247;59610;-79
2022/06/18 05:41:28;;;;;;;5.90;4.30;;;;;;;17.36;68.37;101462.91;107476;1247;59020;-81
2022/06/18 05:43:57;;;;;;;5.60;3.60;;;;;;;17.47;68.05;101462.60;107568;1247;73814;-81
2022/06/18 05:46:26;;;;;;;6.70;4.50;;;;;;;17.56;67.88;101463.44;107673;1247;69663;-78
2022/06/18 05:48:55;;;;;;;6.70;4.10;;;;;;;17.58;67.67;101455.52;107560;1247;68729;-80
2022/06/18 05:51:25;;;;;;;6.50;4.50;;;;;;;17.60;67.68;101456.13;107697;1247;63352;-80
2022/06/18 05:53:56;;;;;;;6.40;4.80;;;;;;;17.62;67.46;101458.80;107751;1247;59602;-78
2022/06/18 05:56:43;;;;;;;5.10;4.60;;;;;;;17.59;67.67;101455.24;107581;1247;59595;-75
2022/06/18 05:59:32;;;;;;;6.90;4.30;;;;;;;17.64;67.68;101457.08;107485;1247;63078;-78
2022/06/18 06:02:02;;;;;;;7.80;5.00;;;;;;;17.74;67.68;101455.11;107531;1248;72330;-80
2022/06/18 06:04:31;;;;;;;8.10;5.00;;;;;;;17.91;67.39;101456.23;107561;1248;60431;-79
2022/06/18 06:07:00;;;;;;;10.90;5.10;;;;;;;18.03;66.74;101459.91;107465;1247;72703;-80
2022/06/18 06:12:16;;;;;;;5.30;4.60;;;;;;;18.33;66.10;101464.12;107971;1247;59612;-76
2022/06/18 06:14:46;;;;;;;7.40;4.50;;;;;;;18.51;64.98;101465.79;107826;1246;75885;-79
2022/06/18 06:17:21;;;;;;;7.20;4.30;;;;;;;18.64;64.48;101466.16;107383;1247;72929;-80
2022/06/18 06:19:50;;;;;;;8.60;4.30;;;;;;;18.68;64.19;101465.84;107643;1247;71196;-82
2022/06/18 06:22:19;;;;;;;8.90;4.50;;;;;;;18.75;63.73;101467.23;107703;1247;64899;-81
2022/06/18 06:24:48;;;;;;;6.30;4.20;;;;;;;18.78;63.05;101473.62;107474;1247;59605;-81
2022/06/18 06:27:17;;;;;;;7.00;4.30;;;;;;;18.85;62.48;101468.02;107537;1246;60611;-78
2022/06/18 06:29:46;;;;;;;5.00;4.00;;;;;;;18.94;62.76;101465.76;107444;1246;74461;-80
2022/06/18 06:32:14;;;;;;;6.40;4.10;;;;;;;19.13;62.85;101461.86;107567;1247;72152;-79
2022/06/18 06:34:43;;;;;;;6.40;4.20;;;;;;;19.33;62.18;101458.81;107424;1247;69297;-81
2022/06/18 06:37:12;;;;;;;5.50;4.40;;;;;;;19.45;61.29;101455.52;107588;1246;72960;-85
2022/06/18 06:39:41;;;;;;;6.30;4.20;;;;;;;19.44;60.87;101447.33;107278;1247;59603;-82
2022/06/18 06:42:10;;;;;;;4.40;3.80;;;;;;;19.39;60.54;101448.34;107633;1245;61348;-82
2022/06/18 06:44:38;;;;;;;5.50;3.90;;;;;;;19.59;60.27;101455.00;107826;1247;75329;-80
2022/06/18 06:47:08;;;;;;;5.20;3.60;;;;;;;19.59;58.89;101462.11;107773;1247;72126;-80
2022/06/18 06:49:37;;;;;;;5.90;3.90;;;;;;;19.51;58.83;101458.27;107739;1246;69474;-81
2022/06/18 06:52:06;;;;;;;4.20;2.80;;;;;;;19.49;59.03;101455.15;107791;1247;73085;-80
2022/06/18 06:54:35;;;;;;;5.30;3.40;;;;;;;19.65;58.19;101448.42;107572;1247;60245;-81
2022/06/18 06:57:22;;;;;;;5.10;3.30;;;;;;;19.70;57.60;101448.89;107744;1246;59913;-79
2022/06/18 06:59:50;;;;;;;5.60;2.90;;;;;;;19.72;57.47;101445.63;107544;1247;65228;-81
2022/06/18 07:02:21;;;;;;;4.30;3.00;;;;;;;19.87;56.48;101444.16;107660;1246;61700;-80
2022/06/18 07:04:50;;;;;;;4.00;2.90;;;;;;;19.88;56.23;101442.27;107815;1245;70375;-79
2022/06/18 07:07:18;;;;;;;4.30;3.00;;;;;;;19.99;55.82;101443.29;107536;1248;73180;-80
2022/06/18 07:09:48;;;;;;;3.80;2.60;;;;;;;20.02;55.76;101445.60;107814;1247;59604;-82
2022/06/18 07:12:17;;;;;;;3.60;3.30;;;;;;;20.12;55.25;101448.86;107609;1247;62293;-81
2022/06/18 07:14:45;;;;;;;3.90;3.00;;;;;;;20.04;55.77;101444.66;107964;1247;74195;-82
2022/06/18 07:17:19;;;;;;;4.80;3.10;;;;;;;20.19;55.10;101449.36;107873;1247;62196;-79
2022/06/18 07:19:48;;;;;;;5.10;3.20;;;;;;;20.24;54.51;101449.90;107814;1247;59139;-80
2022/06/18 07:22:18;;;;;;;5.30;3.10;;;;;;;20.34;54.40;101448.17;107836;1245;63191;-81
2022/06/18 07:24:46;;;;;;;4.90;3.10;;;;;;;20.42;54.22;101447.92;107622;1247;60579;-81
2022/06/18 07:27:15;;;;;;;6.10;3.20;;;;;;;20.41;53.72;101443.77;107717;1247;59356;-83
2022/06/18 07:29:44;;;;;;;3.90;2.60;;;;;;;20.40;53.84;101444.98;107790;1247;63027;-79
2022/06/18 07:32:19;;;;;;;6.00;3.10;;;;;;;20.43;53.41;101451.16;107516;1248;61304;-82
2022/06/18 07:34:48;;;;;;;5.60;3.00;;;;;;;20.38;53.55;101451.85;107425;1247;61938;-80
2022/06/18 07:37:17;;;;;;;6.70;2.90;;;;;;;20.33;53.62;101447.44;107729;1245;62508;-84
2022/06/18 07:39:46;;;;;;;4.20;2.60;;;;;;;20.40;53.50;101445.14;107767;1247;59732;-83
2022/06/18 07:42:20;;;;;;;3.60;2.90;;;;;;;20.66;52.36;101447.61;107804;1247;57896;-79
2022/06/18 07:44:50;;;;;;;4.10;2.50;;;;;;;20.89;51.59;101443.96;108006;1247;63492;-81
2022/06/18 07:47:20;;;;;;;4.40;2.20;;;;;;;21.06;50.68;101439.23;107825;1246;61649;-83
2022/06/18 07:49:50;;;;;;;7.00;2.40;;;;;;;21.19;49.76;101444.91;107630;1247;69825;-80
2022/06/18 07:52:19;;;;;;;7.70;2.60;;;;;;;21.04;49.01;101446.83;107528;1247;63640;-78
2022/06/18 07:54:48;;;;;;;4.00;2.10;;;;;;;21.15;49.08;101442.48;107714;1247;59028;-82
2022/06/18 07:57:24;;;;;;;6.30;2.90;;;;;;;21.26;49.25;101439.70;107574;1247;57968;-82
2022/06/18 07:59:53;;;;;;;3.40;2.30;;;;;;;21.48;48.96;101443.21;107498;1248;74473;-83
2022/06/18 08:02:21;;;;;;;3.80;2.50;;;;;;;21.29;48.50;101443.79;107726;1247;72379;-82
2022/06/18 08:04:50;;;;;;;4.50;2.20;;;;;;;21.34;48.33;101444.67;107572;1247;59853;-82
2022/06/18 08:07:19;;;;;;;5.70;2.30;;;;;;;21.26;48.95;101444.83;107835;1246;72777;-80
2022/06/18 08:09:48;;;;;;;3.50;2.00;;;;;;;21.14;48.48;101446.50;107761;1246;60695;-80
2022/06/18 08:12:18;;;;;;;3.50;1.80;;;;;;;20.97;48.29;101441.90;107688;1246;59520;-81
2022/06/18 08:14:46;;;;;;;5.50;2.20;;;;;;;21.08;48.89;101437.38;107618;1247;74437;-81
2022/06/18 08:17:15;;;;;;;6.60;2.10;;;;;;;21.35;48.41;101435.34;107606;1247;62186;-81
2022/06/18 08:19:45;;;;;;;2.70;2.00;;;;;;;21.47;47.03;101428.42;107804;1247;70659;-84
2022/06/18 08:22:13;;;;;;;5.00;2.20;;;;;;;21.58;46.82;101435.08;107562;1247;71972;-80
2022/06/18 08:24:44;;;;;;;4.10;2.20;;;;;;;21.80;46.54;101430.90;107559;1247;59652;-81
2022/06/18 08:27:14;;;;;;;4.70;1.80;;;;;;;22.04;45.20;101425.46;108066;1247;61289;-80
2022/06/18 08:29:44;;;;;;;3.30;2.10;;;;;;;22.27;44.67;101434.31;108470;1246;75226;-80
2022/06/18 08:32:13;;;;;;;3.50;1.80;;;;;;;22.42;44.57;101439.31;108109;1247;61264;-80
2022/06/18 08:34:43;;;;;;;2.00;1.60;;;;;;;22.19;44.79;101424.30;107930;1245;69809;-82
2022/06/18 08:37:11;;;;;;;2.40;1.70;;;;;;;22.15;44.87;101422.46;107759;1247;65004;-81
2022/06/18 08:39:41;;;;;;;3.00;1.60;;;;;;;22.11;44.86;101430.72;107779;1247;59550;-79
2022/06/18 08:42:12;;;;;;;2.50;1.50;;;;;;;22.14;44.51;101435.20;107655;1247;60657;-82
2022/06/18 08:44:58;;;;;;;2.10;1.50;;;;;;;22.37;44.15;101431.36;107822;1247;64552;-83
2022/06/18 08:48:05;;;;;;;5.00;1.80;;;;;;;22.66;42.12;101427.61;107518;1247;72388;-84
2022/06/18 08:50:57;;;;;;;2.90;1.60;;;;;;;22.92;42.43;101423.65;107819;1247;70207;-82
2022/06/18 08:53:58;;;;;;;3.10;1.20;;;;;;;23.08;40.52;101423.60;107677;1247;73679;-83
2022/06/18 08:56:39;;;;;;;3.00;1.30;;;;;;;22.96;40.61;101428.80;107662;1247;61716;-82
2022/06/18 08:59:42;;;;;;;3.90;1.10;;;;;;;23.08;39.17;101421.68;107676;1246;61035;-81
2022/06/18 09:02:27;;;;;;;;;;;;;;;23.13;39.24;101423.17;107873;1247;74432;-81
2022/06/18 09:05:31;;;;;;;2.50;1.50;;;;;;;23.09;39.24;101417.73;108457;1245;72107;-80
2022/06/18 09:08:17;;;;;;;3.20;1.10;;;;;;;23.24;39.58;101418.02;108179;1246;70424;-87
2022/06/18 09:11:07;;;;;;;2.30;1.40;;;;;;;23.13;38.76;101422.14;108249;1246;72604;-86
2022/06/18 09:14:09;;;;;;;5.00;1.60;;;;;;;23.29;39.00;101419.67;108045;1246;61849;-82
2022/06/18 09:16:54;;;;;;;5.00;1.70;;;;;;;23.73;37.96;101419.07;107721;1248;58848;-81
2022/06/18 09:19:30;;;;;;;2.30;1.60;;;;;;;23.82;38.11;101422.63;107903;1246;63811;-83
2022/06/18 09:22:02;;;;;;;6.50;1.80;;;;;;;23.52;39.48;101428.38;107673;1247;72324;-81
2022/06/18 09:24:39;;;;;;;3.20;1.80;;;;;;;23.49;39.95;101426.14;107604;1247;71138;-84
2022/06/18 09:27:23;;;;;;;4.00;1.80;;;;;;;23.50;39.79;101417.64;107608;1247;63857;-81
2022/06/18 09:30:06;;;;;;;3.00;2.00;;;;;;;23.36;40.07;101413.94;107672;1246;60333;-81
2022/06/18 09:32:47;;;;;;;3.40;1.80;;;;;;;22.96;41.36;101420.13;107741;1247;62195;-82
2022/06/18 09:35:21;;;;;;;3.60;1.90;;;;;;;23.14;41.25;101417.16;107808;1246;63639;-84
2022/06/18 09:37:57;;;;;;;3.20;2.00;;;;;;;23.09;41.87;101417.82;107668;1246;71423;-84
2022/06/18 09:40:33;;;;;;;3.60;2.10;;;;;;;23.51;40.85;101406.82;107744;1246;70031;-83
2022/06/18 09:44:04;;;;;;;2.80;1.60;;;;;;;24.02;40.02;101402.78;107703;1246;64113;-84
2022/06/18 09:46:49;;;;;;;3.60;1.80;;;;;;;24.15;38.62;101413.36;107612;1246;60519;-84
2022/06/18 09:49:18;;;;;;;3.10;1.60;;;;;;;23.80;39.07;101410.65;107365;1248;61077;-81
2022/06/18 09:52:05;;;;;;;2.80;1.80;;;;;;;23.70;39.78;101409.80;107535;1246;74313;-85
2022/06/18 09:54:49;;;;;;;2.50;1.50;;;;;;;23.95;39.31;101402.23;107728;1247;62919;-81
2022/06/18 09:57:22;;;;;;;2.10;1.70;;;;;;;23.81;39.19;101397.66;107800;1245;60401;-81
2022/06/18 10:00:03;;;;;;;2.90;1.80;;;;;;;23.78;39.55;101404.66;107691;1247;63278;-81
2022/06/18 10:03:01;;;;;;;5.00;2.10;;;;;;;23.67;39.82;101406.20;107631;1247;59586;-82
2022/06/18 10:08:39;;;;;;;5.00;1.70;;;;;;;24.04;39.66;101399.98;107803;1246;63260;-82
2022/06/18 10:11:11;;;;;;;4.20;2.00;;;;;;;24.03;39.14;101403.76;107642;1247;61140;-79
2022/06/18 10:13:49;;;;;;;3.60;1.70;;;;;;;23.88;39.25;101402.70;107757;1246;60058;-82
2022/06/18 10:16:36;;;;;;;3.60;1.90;;;;;;;23.93;39.24;101395.39;107453;1247;63359;-83
2022/06/18 10:19:20;;;;;;;3.10;1.60;;;;;;;24.06;38.90;101388.51;107767;1245;60495;-78
2022/06/18 10:22:12;;;;;;;2.00;1.50;;;;;;;24.22;39.18;101388.20;107628;1246;60716;-84
2022/06/18 10:25:32;;;;;;;4.50;1.90;;;;;;;24.16;39.82;101396.14;107780;1246;65487;-81
2022/06/18 10:28:27;;;;;;;2.90;1.90;;;;;;;24.10;39.51;101400.44;107441;1247;72278;-79
2022/06/18 10:30:56;;;;;;;4.70;1.70;;;;;;;23.89;39.20;101395.89;107333;1247;60713;-82
2022/06/18 10:34:19;;;;;;;4.60;1.80;;;;;;;23.98;38.45;101393.53;107583;1247;73943;-82
2022/06/18 10:37:07;;;;;;;2.10;1.40;;;;;;;24.21;38.67;101391.61;107743;1246;59707;-80
2022/06/18 10:40:27;;;;;;;4.70;1.40;;;;;;;24.67;37.60;101393.44;107640;1246;61797;-83
2022/06/18 10:43:23;;;;;;;4.60;1.80;;;;;;;24.47;37.93;101401.02;107766;1246;64217;-83
2022/06/18 10:46:13;;;;;;;2.80;1.50;;;;;;;24.32;37.72;101405.33;107873;1246;71208;-82
2022/06/18 10:48:47;;;;;;;2.80;1.60;;;;;;;23.95;38.15;101400.09;107837;1246;70366;-83
2022/06/18 10:51:21;;;;;;;2.00;1.40;;;;;;;23.76;38.90;101401.40;107746;1246;73503;-80
2022/06/18 10:53:55;;;;;;;3.10;1.70;;;;;;;23.68;38.93;101401.27;107648;1246;60813;-83
2022/06/18 10:56:33;;;;;;;2.00;1.50;;;;;;;23.63;38.50;101398.34;107833;1246;60926;-81
2022/06/18 10:59:03;;;;;;;3.60;1.70;;;;;;;24.19;37.76;101400.83;107967;1246;64295;-81
2022/06/18 11:01:43;;;;;;;3.00;1.40;;;;;;;24.81;36.62;101392.45;107907;1246;62026;-80
2022/06/18 11:04:30;;;;;;;3.30;1.50;;;;;;;25.37;35.48;101384.17;107791;1246;60639;-83
2022/06/18 11:07:05;;;;;;;4.10;1.40;;;;;;;25.93;34.67;101385.80;107613;1248;64524;-82
2022/06/18 11:09:56;;;;;;;2.40;1.20;;;;;;;26.03;34.51;101379.13;107757;1247;62266;-81
2022/06/18 11:12:32;;;;;;;4.20;1.30;;;;;;;26.16;33.83;101376.08;107398;1249;59688;-80
2022/06/18 11:15:03;;;;;;;5.90;1.40;;;;;;;25.72;34.06;101383.30;107985;1245;74443;-80
2022/06/18 11:17:43;;;;;;;4.20;1.30;;;;;;;25.41;34.25;101386.45;107706;1247;61695;-80
2022/06/18 11:20:14;;;;;;;3.80;1.30;;;;;;;25.91;33.40;101379.36;107721;1246;69601;-83
2022/06/18 11:22:49;;;;;;;2.90;1.40;;;;;;;26.26;32.83;101387.84;107557;1247;63922;-81
2022/06/18 11:25:41;;;;;;;3.80;1.60;;;;;;;26.49;32.76;101396.17;107595;1247;59646;-82
2022/06/18 11:28:28;;;;;;;2.10;1.20;;;;;;;26.25;33.02;101389.85;107533;1247;59609;-82
2022/06/18 11:30:57;;;;;;;4.00;1.30;;;;;;;26.56;32.23;101392.16;107048;1247;74612;-81
2022/06/18 11:33:40;;;;;;;1.20;1.00;;;;;;;26.55;32.43;101390.31;107684;1246;62102;-81
2022/06/18 11:36:15;;;;;;;6.40;2.20;;;;;;;26.51;32.50;101389.01;107759;1247;70491;-82
2022/06/18 11:38:55;;;;;;;14.20;6.30;;;;;;;25.90;33.86;101386.27;107875;1246;63043;-86
2022/06/18 11:41:42;;;;;;;3.10;1.20;;;;;;;25.98;34.37;101387.27;108687;1247;59627;-83
2022/06/18 11:44:22;;;;;;;2.10;1.40;;;;;;;25.65;34.32;101389.53;108259;1247;59468;-79
2022/06/18 11:47:16;;;;;;;2.00;1.20;;;;;;;25.47;34.68;101391.20;108243;1246;64148;-82
2022/06/18 11:50:14;;;;;;;3.90;1.40;;;;;;;25.86;34.43;101391.14;107992;1246;60915;-82
2022/06/18 11:53:02;;;;;;;3.00;1.20;;;;;;;26.05;33.68;101390.63;108019;1246;59245;-82
2022/06/18 11:55:44;;;;;;;4.30;2.10;;;;;;;26.67;32.44;101383.70;107877;1247;62715;-84
2022/06/18 11:58:18;;;;;;;3.00;1.40;;;;;;;26.85;31.67;101376.48;108117;1246;60267;-85
2022/06/18 12:01:22;;;;;;;2.30;1.20;;;;;;;27.32;31.12;101374.37;108046;1247;57871;-81
2022/06/18 12:04:04;;;;;;;4.60;1.20;;;;;;;27.23;30.47;101359.19;107893;1246;74448;-83
2022/06/18 12:06:48;;;;;;;1.70;1.00;;;;;;;28.04;30.05;101361.63;107822;1246;71864;-83
2022/06/18 12:09:29;;;;;;;5.10;1.40;;;;;;;28.38;28.98;101355.17;107656;1247;60398;-82
2022/06/18 12:12:23;;;;;;;1.40;0.90;;;;;;;28.64;28.07;101355.48;107625;1246;63106;-83
2022/06/18 12:15:06;;;;;;;2.90;1.00;;;;;;;28.83;26.99;101357.25;107771;1246;59838;-82
2022/06/18 12:18:08;;;;;;;2.30;1.00;;;;;;;28.89;25.93;101355.52;107457;1247;61301;-81